Time;durP1;ratioP1;P1;durP2;ratioP2;P2;SDS_P1;SDS_P2;PMS_P1;PMS_P2;Temp;Humidity;BMP_temperature;BMP_pressure;BME280_temperature;BME280_humidity;BME280_pressure;Samples;Min_cycle;Max_cycle;Signal;HPM_P1;HPM_P2
2023/11/14 00:00:30;;;;;;;40.15;22.65;;;;;;;2.23;87.36;99025.20;1649615;87;25587;-51
2023/11/14 00:02:58;;;;;;;39.88;22.65;;;;;;;2.26;87.55;99027.82;1649023;87;26038;-53
2023/11/14 00:05:25;;;;;;;38.20;21.07;;;;;;;2.28;87.56;99019.53;1648810;87;25642;-53
2023/11/14 00:07:51;;;;;;;39.92;22.80;;;;;;;2.30;87.55;99022.19;1648329;87;25906;-53
2023/11/14 00:10:18;;;;;;;42.10;23.60;;;;;;;2.32;87.41;99027.24;1649466;87;25631;-53
2023/11/14 00:12:45;;;;;;;41.48;23.18;;;;;;;2.35;87.36;99019.98;1649611;87;25491;-51
2023/11/14 00:15:11;;;;;;;37.48;21.87;;;;;;;2.36;87.43;99023.70;1651189;86;28009;-53
2023/11/14 00:17:41;;;;;;;37.28;21.23;;;;;;;2.36;87.34;99026.36;1652113;86;25589;-51
2023/11/14 00:20:08;;;;;;;36.93;20.90;;;;;;;2.37;87.12;99013.84;1666013;86;25467;-51
2023/11/14 00:22:37;;;;;;;43.00;22.82;;;;;;;2.36;87.13;99005.56;1654684;86;26390;-54
2023/11/14 00:25:06;;;;;;;41.08;23.35;;;;;;;2.35;87.12;99007.97;1666286;86;25420;-51
2023/11/14 00:27:32;;;;;;;36.28;21.40;;;;;;;2.35;87.11;98996.77;1666425;86;28080;-55
2023/11/14 00:29:59;;;;;;;42.60;23.52;;;;;;;2.36;87.11;98992.22;1666258;86;25767;-53
2023/11/14 00:32:26;;;;;;;41.77;22.10;;;;;;;2.38;87.35;98980.20;1666314;86;25588;-53
2023/11/14 00:34:53;;;;;;;32.73;19.57;;;;;;;2.39;87.18;98963.08;1666358;86;25693;-54
2023/11/14 00:37:20;;;;;;;32.35;20.62;;;;;;;2.39;86.87;98948.41;1666422;84;25568;-53
2023/11/14 00:39:47;;;;;;;39.05;22.52;;;;;;;2.40;86.91;98936.66;1666305;86;27340;-52
2023/11/14 00:42:13;;;;;;;40.80;22.75;;;;;;;2.44;87.03;98934.20;1666291;86;25545;-52
2023/11/14 00:44:40;;;;;;;38.28;24.55;;;;;;;2.47;87.03;98930.97;1666314;86;25483;-53
2023/11/14 00:47:08;;;;;;;39.63;21.87;;;;;;;2.52;87.33;98913.55;1666268;86;25689;-54
2023/11/14 00:49:35;;;;;;;40.80;21.48;;;;;;;2.58;87.05;98915.59;1666324;84;25435;-53
2023/11/14 00:52:01;;;;;;;35.63;20.50;;;;;;;2.61;87.04;98901.12;1634711;86;27518;-52
2023/11/14 00:54:31;;;;;;;37.42;21.05;;;;;;;2.65;86.94;98901.33;1666202;86;25806;-52
2023/11/14 00:56:58;;;;;;;31.12;18.73;;;;;;;2.65;86.76;98894.66;1666354;86;25621;-51
2023/11/14 00:59:24;;;;;;;37.40;22.07;;;;;;;2.65;86.80;98912.01;1666247;86;25630;-51
2023/11/14 01:01:51;;;;;;;34.55;20.08;;;;;;;2.66;86.79;98926.17;1666371;86;25638;-51
2023/11/14 01:04:19;;;;;;;34.00;19.35;;;;;;;2.65;87.14;98952.61;1666288;86;27283;-52
2023/11/14 01:06:46;;;;;;;36.08;20.25;;;;;;;2.64;87.52;98975.85;1665870;86;26164;-55
2023/11/14 01:09:13;;;;;;;35.75;19.73;;;;;;;2.63;87.79;98990.27;1666273;86;25641;-53
2023/11/14 01:11:40;;;;;;;36.58;20.75;;;;;;;2.60;88.24;98972.94;1666479;85;25624;-53
2023/11/14 01:14:08;;;;;;;33.08;19.80;;;;;;;2.59;88.63;98939.88;1666901;85;25601;-54
2023/11/14 01:16:35;;;;;;;34.50;19.87;;;;;;;2.59;88.97;98893.16;1649793;87;27956;-54
2023/11/14 01:19:02;;;;;;;35.73;20.62;;;;;;;2.59;89.34;98872.59;1649548;87;25459;-55
2023/11/14 01:21:31;;;;;;;35.78;20.88;;;;;;;2.59;89.62;98819.75;1649574;87;25620;-53
2023/11/14 01:23:59;;;;;;;36.42;21.33;;;;;;;2.58;90.03;98779.45;1649654;87;26494;-55
2023/11/14 01:26:35;;;;;;;35.80;21.57;;;;;;;2.51;89.99;98734.45;1649556;87;25728;-53
2023/11/14 01:29:03;;;;;;;40.55;23.02;;;;;;;2.46;90.42;98693.16;1649562;87;27304;-54
2023/11/14 01:31:30;;;;;;;39.50;21.25;;;;;;;2.40;90.88;98627.09;1649444;87;25448;-54
2023/11/14 01:33:57;;;;;;;37.85;20.68;;;;;;;2.35;92.25;98575.67;1649467;87;25630;-55
2023/11/14 01:36:25;;;;;;;31.60;20.30;;;;;;;2.28;91.64;98562.72;1649455;87;25628;-58
2023/11/14 01:38:53;;;;;;;39.80;20.90;;;;;;;2.25;92.55;98543.33;1649541;87;25503;-55
2023/11/14 01:41:19;;;;;;;35.88;21.00;;;;;;;2.23;93.52;98537.48;1649494;87;27342;-53
2023/11/14 01:43:48;;;;;;;37.38;21.90;;;;;;;2.23;94.45;98558.81;1649438;87;25495;-53
2023/11/14 01:46:18;;;;;;;36.73;21.50;;;;;;;2.23;94.80;98556.16;1632165;87;25717;-54
2023/11/14 01:48:51;;;;;;;38.83;21.52;;;;;;;2.33;94.97;98573.30;1649452;87;25702;-55
2023/11/14 01:51:20;;;;;;;38.65;20.95;;;;;;;2.26;95.79;98562.23;1649542;87;25550;-54
2023/11/14 01:53:50;;;;;;;40.58;21.17;;;;;;;2.29;95.81;98576.32;1649632;87;30042;-54
2023/11/14 01:56:19;;;;;;;38.60;22.58;;;;;;;2.32;96.16;98602.42;1649558;87;25501;-54
2023/11/14 01:58:47;;;;;;;38.33;22.48;;;;;;;2.37;96.81;98607.66;1649634;87;25519;-54
2023/11/14 02:01:14;;;;;;;36.85;21.45;;;;;;;2.41;97.05;98601.19;1649474;87;25678;-56
2023/11/14 02:03:43;;;;;;;38.13;22.37;;;;;;;2.46;96.58;98614.98;1649538;87;25505;-55
2023/11/14 02:06:10;;;;;;;37.40;22.17;;;;;;;2.52;96.80;98617.27;1649604;87;27341;-55
2023/11/14 02:08:38;;;;;;;39.48;23.47;;;;;;;2.55;97.40;98617.98;1649434;87;25430;-55
2023/11/14 02:11:05;;;;;;;41.30;23.18;;;;;;;2.60;97.31;98601.86;1649517;87;25448;-54
2023/11/14 02:13:34;;;;;;;39.55;23.05;;;;;;;2.62;97.36;98596.23;1649453;87;25643;-54
2023/11/14 02:16:03;;;;;;;41.37;23.12;;;;;;;2.67;97.36;98601.47;1654194;86;25569;-53
2023/11/14 02:18:31;;;;;;;43.20;23.00;;;;;;;2.70;97.37;98608.89;1656290;86;27900;-57
2023/11/14 02:20:58;;;;;;;41.28;22.77;;;;;;;2.74;97.35;98616.56;1656077;86;25731;-57
2023/11/14 02:23:29;;;;;;;39.73;22.30;;;;;;;2.78;97.52;98617.55;1656188;86;25591;-54
2023/11/14 02:25:57;;;;;;;37.00;22.02;;;;;;;2.83;97.83;98607.84;1656161;86;25588;-57
2023/11/14 02:28:24;;;;;;;36.33;21.68;;;;;;;2.87;98.03;98603.49;1656206;86;25424;-54
2023/11/14 02:30:51;;;;;;;39.78;22.85;;;;;;;2.89;98.50;98607.44;1656132;86;28073;-57
2023/11/14 02:33:18;;;;;;;36.28;20.37;;;;;;;2.93;98.62;98602.31;1656017;86;25798;-54
2023/11/14 02:35:46;;;;;;;35.92;20.48;;;;;;;2.95;98.93;98596.90;1625007;86;25457;-55
2023/11/14 02:38:14;;;;;;;35.08;21.42;;;;;;;2.97;99.26;98607.29;1624917;86;25538;-57
2023/11/14 02:40:40;;;;;;;38.78;22.90;;;;;;;3.00;99.22;98597.34;1624628;86;25445;-56
2023/11/14 02:43:07;;;;;;;35.33;22.45;;;;;;;3.04;99.42;98590.30;1656242;86;27667;-58
2023/11/14 02:45:35;;;;;;;33.85;21.23;;;;;;;3.06;100.00;98579.31;1656099;86;25584;-57
2023/11/14 02:48:01;;;;;;;34.83;21.68;;;;;;;3.07;100.00;98572.34;1656238;86;25674;-55
2023/11/14 02:50:48;;;;;;;32.83;22.55;;;;;;;3.11;100.00;98587.22;1656275;86;26560;-54
2023/11/14 02:53:15;;;;;;;35.55;21.93;;;;;;;3.12;100.00;98572.78;1675658;85;25578;-56
2023/11/14 02:55:44;;;;;;;34.43;21.25;;;;;;;3.14;100.00;98566.59;1675595;85;27351;-54
2023/11/14 02:58:13;;;;;;;35.20;21.97;;;;;;;3.17;100.00;98576.67;1651657;86;25583;-54
2023/11/14 03:00:47;;;;;;;34.83;22.67;;;;;;;3.19;100.00;98567.80;1651653;86;25681;-54
2023/11/14 03:03:10;;;;;;;34.60;22.90;;;;;;;3.22;100.00;98573.89;1649716;86;25706;-54
2023/11/14 03:05:38;;;;;;;37.38;23.25;;;;;;;3.24;100.00;98569.58;1651570;86;25565;-54
2023/11/14 03:08:05;;;;;;;35.88;23.62;;;;;;;3.25;100.00;98569.81;1651483;86;29474;-53
2023/11/14 03:10:33;;;;;;;37.03;23.67;;;;;;;3.26;100.00;98570.06;1651454;86;25507;-54
2023/11/14 03:13:03;;;;;;;39.50;24.02;;;;;;;3.26;100.00;98564.72;1651454;86;25471;-55
2023/11/14 03:15:30;;;;;;;31.35;21.90;;;;;;;3.27;100.00;98557.73;1651291;86;25667;-55
2023/11/14 03:18:00;;;;;;;34.53;22.90;;;;;;;3.28;100.00;98561.97;1660634;86;25434;-55
2023/11/14 03:20:29;;;;;;;;;;;;;;;3.28;100.00;98573.22;1637492;86;27218;-58
2023/11/14 03:22:56;;;;;;;37.38;23.00;;;;;;;3.29;100.00;98557.44;1635947;86;25727;-59
2023/11/14 03:25:23;;;;;;;34.67;22.05;;;;;;;3.27;100.00;98555.06;1660675;86;25621;-60
2023/11/14 03:27:51;;;;;;;32.48;21.35;;;;;;;3.26;100.00;98559.38;1660591;86;25697;-58
2023/11/14 03:30:22;;;;;;;29.42;20.72;;;;;;;3.27;100.00;98554.25;1660716;86;25476;-58
2023/11/14 03:32:50;;;;;;;33.13;21.02;;;;;;;3.27;100.00;98544.91;1660665;86;27373;-58
2023/11/14 03:35:17;;;;;;;32.98;21.12;;;;;;;3.27;100.00;98552.39;1660545;86;25717;-57
2023/11/14 03:37:45;;;;;;;30.68;20.77;;;;;;;3.27;100.00;98547.05;1660560;86;25718;-55
2023/11/14 03:40:13;;;;;;;33.10;21.95;;;;;;;3.29;100.00;98544.08;1660521;86;25596;-59
2023/11/14 03:42:41;;;;;;;32.67;21.10;;;;;;;3.29;100.00;98538.73;1660830;86;25616;-58
2023/11/14 03:45:09;;;;;;;31.65;21.27;;;;;;;3.30;100.00;98539.77;1660610;86;27449;-57
2023/11/14 03:47:38;;;;;;;30.92;21.23;;;;;;;3.32;100.00;98532.76;1660684;86;25633;-59
2023/11/14 03:50:07;;;;;;;35.58;22.05;;;;;;;3.33;100.00;98545.04;1660590;86;25510;-59
2023/11/14 03:52:35;;;;;;;32.17;22.37;;;;;;;3.34;100.00;98544.73;1660704;86;26340;-58
2023/11/14 03:55:02;;;;;;;30.23;20.25;;;;;;;3.36;100.00;98547.89;1660646;86;25455;-58
2023/11/14 03:57:29;;;;;;;31.65;21.30;;;;;;;3.36;100.00;98537.76;1660580;86;27943;-58
2023/11/14 03:59:57;;;;;;;34.50;21.15;;;;;;;3.38;100.00;98544.14;1660446;86;25459;-58
2023/11/14 04:02:26;;;;;;;35.92;22.93;;;;;;;3.39;100.00;98529.66;1660565;86;25428;-58
2023/11/14 04:04:53;;;;;;;34.98;21.30;;;;;;;3.40;100.00;98509.88;1660723;86;25559;-59
2023/11/14 04:07:20;;;;;;;36.65;21.85;;;;;;;3.40;100.00;98513.88;1660674;86;25639;-57
2023/11/14 04:09:47;;;;;;;32.80;22.32;;;;;;;3.41;100.00;98526.16;1636106;86;27429;-59
2023/11/14 04:12:14;;;;;;;37.13;23.40;;;;;;;3.45;100.00;98521.22;1660499;86;25606;-58
2023/11/14 04:14:41;;;;;;;36.68;23.47;;;;;;;3.48;100.00;98519.84;1660541;86;25653;-59
2023/11/14 04:17:09;;;;;;;36.60;23.30;;;;;;;3.49;100.00;98512.85;1652915;86;25645;-58
2023/11/14 04:19:36;;;;;;;33.67;20.92;;;;;;;3.54;100.00;98518.59;1652216;86;25408;-58
2023/11/14 04:22:04;;;;;;;35.25;22.55;;;;;;;3.56;100.00;98515.09;1652185;86;27937;-57
2023/11/14 04:24:31;;;;;;;34.85;22.85;;;;;;;3.60;100.00;98512.59;1652150;86;25569;-57
2023/11/14 04:27:02;;;;;;;35.78;22.37;;;;;;;3.63;100.00;98515.45;1652210;86;25464;-58
2023/11/14 04:29:31;;;;;;;40.05;23.85;;;;;;;3.66;100.00;98514.84;1621008;86;25693;-58
2023/11/14 04:31:59;;;;;;;42.85;24.32;;;;;;;3.70;100.00;98515.02;1652226;86;25622;-59
2023/11/14 04:34:27;;;;;;;36.13;23.55;;;;;;;3.72;100.00;98504.23;1620759;86;27767;-58
2023/11/14 04:36:54;;;;;;;40.08;24.60;;;;;;;3.77;100.00;98506.55;1652245;86;25767;-59
2023/11/14 04:39:22;;;;;;;45.88;24.52;;;;;;;3.78;100.00;98502.77;1652301;86;25637;-59
2023/11/14 04:41:50;;;;;;;43.15;25.12;;;;;;;3.80;100.00;98504.05;1652313;86;26174;-58
2023/11/14 04:44:18;;;;;;;39.75;24.77;;;;;;;3.83;100.00;98505.30;1652440;86;25586;-58
2023/11/14 04:46:45;;;;;;;41.37;23.90;;;;;;;3.85;100.00;98502.58;1652241;86;27996;-58
2023/11/14 04:49:13;;;;;;;42.08;24.47;;;;;;;3.88;100.00;98502.50;1666246;84;25650;-59
2023/11/14 04:51:42;;;;;;;43.00;25.35;;;;;;;3.90;100.00;98500.33;1666345;86;25557;-59
2023/11/14 04:54:10;;;;;;;45.20;25.20;;;;;;;3.92;100.00;98498.91;1666527;86;25633;-58
2023/11/14 04:56:38;;;;;;;39.70;24.30;;;;;;;3.95;100.00;98500.19;1666583;86;25418;-58
2023/11/14 04:59:05;;;;;;;42.33;24.40;;;;;;;3.99;100.00;98493.67;1666217;86;28009;-57
2023/11/14 05:01:32;;;;;;;45.58;25.90;;;;;;;4.01;100.00;98493.59;1666230;86;25660;-55
2023/11/14 05:03:59;;;;;;;43.90;26.42;;;;;;;4.04;100.00;98496.20;1666262;86;25541;-59
2023/11/14 05:06:27;;;;;;;43.52;24.43;;;;;;;4.07;100.00;98498.24;1666294;86;25859;-56
2023/11/14 05:08:54;;;;;;;45.10;26.23;;;;;;;4.09;100.00;98500.86;1666334;86;25641;-55
2023/11/14 05:11:21;;;;;;;45.52;26.35;;;;;;;4.15;100.00;98514.10;1666318;86;27353;-55
2023/11/14 05:13:49;;;;;;;44.80;26.68;;;;;;;4.17;100.00;98502.01;1666215;86;25936;-56
2023/11/14 05:16:17;;;;;;;48.92;26.57;;;;;;;4.20;100.00;98508.05;1666063;85;25418;-56
2023/11/14 05:18:45;;;;;;;47.85;26.50;;;;;;;4.24;100.00;98517.59;1651440;86;25634;-56
2023/11/14 05:21:13;;;;;;;46.70;26.15;;;;;;;4.28;100.00;98521.23;1658958;86;25447;-57
2023/11/14 05:23:41;;;;;;;46.37;27.48;;;;;;;4.33;100.00;98529.69;1670651;85;27414;-57
2023/11/14 05:26:09;;;;;;;44.20;26.50;;;;;;;4.37;100.00;98530.63;1670571;85;25677;-57
2023/11/14 05:28:38;;;;;;;46.25;25.52;;;;;;;4.40;100.00;98534.81;1670640;85;25634;-58
2023/11/14 05:31:07;;;;;;;46.15;26.85;;;;;;;4.46;100.00;98547.50;1670530;85;25655;-58
2023/11/14 05:33:35;;;;;;;43.35;26.80;;;;;;;4.51;100.00;98550.03;1670764;85;25626;-57
2023/11/14 05:36:03;;;;;;;48.80;27.42;;;;;;;4.56;100.00;98543.19;1670647;85;28044;-58
2023/11/14 05:38:31;;;;;;;43.95;26.07;;;;;;;4.64;100.00;98552.36;1670542;85;25706;-58
2023/11/14 05:40:59;;;;;;;46.00;25.97;;;;;;;4.70;100.00;98559.16;1639159;85;25512;-57
2023/11/14 05:43:28;;;;;;;45.70;26.15;;;;;;;4.77;100.00;98552.78;1670553;85;25632;-58
2023/11/14 05:45:56;;;;;;;41.90;25.40;;;;;;;4.84;100.00;98552.33;1670446;85;25585;-58
2023/11/14 05:48:25;;;;;;;45.08;26.10;;;;;;;4.91;100.00;98559.34;1670769;85;27354;-57
2023/11/14 05:50:51;;;;;;;41.63;24.32;;;;;;;5.00;100.00;98566.05;1670517;85;25737;-59
2023/11/14 05:53:18;;;;;;;45.08;25.75;;;;;;;5.07;100.00;98565.02;1670601;85;25593;-56
2023/11/14 05:55:47;;;;;;;47.13;26.05;;;;;;;5.14;100.00;98565.89;1670556;85;25687;-59
2023/11/14 05:58:14;;;;;;;39.90;24.35;;;;;;;5.24;100.00;98569.60;1670658;85;25639;-58
2023/11/14 06:00:42;;;;;;;44.08;24.23;;;;;;;5.31;100.00;98571.81;1670620;85;28101;-59
2023/11/14 06:03:10;;;;;;;45.63;25.15;;;;;;;5.40;100.00;98578.76;1670561;85;25593;-58
2023/11/14 06:05:37;;;;;;;42.67;23.07;;;;;;;5.49;100.00;98576.63;1670618;85;25657;-57
2023/11/14 06:08:05;;;;;;;40.17;23.18;;;;;;;5.58;100.00;98582.77;1670610;85;25625;-54
2023/11/14 06:10:32;;;;;;;44.03;23.90;;;;;;;5.67;100.00;98587.58;1670653;85;25660;-59
2023/11/14 06:12:59;;;;;;;43.98;23.73;;;;;;;5.76;100.00;98588.91;1670550;85;29470;-54
2023/11/14 06:15:26;;;;;;;40.43;21.68;;;;;;;5.83;100.00;98588.42;1670554;85;25487;-62
2023/11/14 06:17:53;;;;;;;37.33;20.90;;;;;;;5.90;100.00;98605.59;1668808;85;25616;-56
2023/11/14 06:20:21;;;;;;;44.88;23.25;;;;;;;5.97;100.00;98603.23;1666193;86;25675;-60
2023/11/14 06:22:50;;;;;;;42.95;23.35;;;;;;;6.06;100.00;98605.13;1666453;86;25408;-57
2023/11/14 06:25:18;;;;;;;42.27;21.00;;;;;;;6.14;100.00;98599.72;1665725;86;27389;-58
2023/11/14 06:27:45;;;;;;;46.83;21.68;;;;;;;6.21;100.00;98593.86;1665519;86;25725;-58
2023/11/14 06:30:13;;;;;;;36.88;22.07;;;;;;;6.27;100.00;98610.05;1665594;86;25652;-60
2023/11/14 06:32:40;;;;;;;37.78;21.73;;;;;;;6.32;100.00;98613.89;1665550;86;25739;-58
2023/11/14 06:35:08;;;;;;;40.33;21.42;;;;;;;6.38;100.00;98615.84;1665577;86;25342;-60
2023/11/14 06:37:36;;;;;;;39.73;22.60;;;;;;;6.43;100.00;98625.62;1635423;86;27364;-58
2023/11/14 06:40:07;;;;;;;42.65;21.73;;;;;;;6.47;100.00;98621.98;1666172;86;25494;-60
2023/11/14 06:42:35;;;;;;;38.17;20.32;;;;;;;6.51;100.00;98622.91;1666392;86;25470;-59
2023/11/14 06:45:07;;;;;;;41.80;22.07;;;;;;;6.56;100.00;98631.34;1666376;86;25637;-58
2023/11/14 06:47:33;;;;;;;43.58;22.52;;;;;;;6.59;100.00;98626.68;1666452;86;25615;-58
2023/11/14 06:50:00;;;;;;;42.73;22.87;;;;;;;6.64;100.00;98629.72;1666394;86;27940;-60
2023/11/14 06:52:26;;;;;;;37.15;21.85;;;;;;;6.66;100.00;98629.64;1666301;86;25603;-60
2023/11/14 06:54:53;;;;;;;42.53;22.40;;;;;;;6.70;100.00;98632.47;1666375;86;25655;-59
2023/11/14 06:57:20;;;;;;;41.02;22.20;;;;;;;6.74;100.00;98633.39;1666378;86;26204;-59
2023/11/14 06:59:49;;;;;;;40.23;21.95;;;;;;;6.78;100.00;98630.30;1666421;86;25666;-59
2023/11/14 07:02:16;;;;;;;41.77;22.15;;;;;;;6.83;100.00;98643.55;1666403;86;27341;-60
2023/11/14 07:04:43;;;;;;;38.30;21.93;;;;;;;6.86;100.00;98637.53;1666313;86;25624;-59
2023/11/14 07:07:10;;;;;;;36.85;21.85;;;;;;;6.90;100.00;98639.02;1666383;86;25399;-59
2023/11/14 07:09:37;;;;;;;38.42;21.97;;;;;;;6.94;100.00;98637.24;1666331;86;25719;-60
2023/11/14 07:12:05;;;;;;;41.73;21.27;;;;;;;6.99;100.00;98643.00;1666370;86;25557;-59
2023/11/14 07:14:32;;;;;;;47.27;22.63;;;;;;;7.03;100.00;98644.72;1640135;86;27304;-60
2023/11/14 07:16:58;;;;;;;40.52;21.95;;;;;;;7.06;100.00;98641.36;1663904;85;25630;-60
2023/11/14 07:19:25;;;;;;;44.42;22.50;;;;;;;7.10;100.00;98634.23;1664918;86;25482;-59
2023/11/14 07:21:55;;;;;;;45.63;22.35;;;;;;;7.16;100.00;98639.42;1657988;85;25837;-60
2023/11/14 07:24:22;;;;;;;46.77;23.15;;;;;;;7.22;100.00;98648.85;1680826;85;25602;-58
2023/11/14 07:26:49;;;;;;;51.65;23.00;;;;;;;7.26;100.00;98641.73;1680759;85;27347;-60
2023/11/14 07:29:19;;;;;;;45.28;22.17;;;;;;;7.33;100.00;98651.41;1680665;85;25473;-57
2023/11/14 07:31:45;;;;;;;39.23;20.85;;;;;;;7.38;100.00;98653.90;1680717;85;25653;-60
2023/11/14 07:34:13;;;;;;;34.70;21.35;;;;;;;7.43;100.00;98652.92;1680618;85;25951;-60
2023/11/14 07:36:39;;;;;;;43.50;21.60;;;;;;;7.47;100.00;98649.26;1680806;85;25479;-59
2023/11/14 07:39:06;;;;;;;42.27;21.42;;;;;;;7.51;100.00;98652.08;1680747;85;27722;-60
2023/11/14 07:41:34;;;;;;;37.35;21.27;;;;;;;7.57;100.00;98655.34;1680698;85;25675;-61
2023/11/14 07:44:01;;;;;;;42.05;20.82;;;;;;;7.61;100.00;98654.37;1680751;85;25421;-60
2023/11/14 07:46:27;;;;;;;43.63;22.25;;;;;;;7.65;100.00;98655.84;1680686;85;25634;-59
2023/11/14 07:48:55;;;;;;;34.25;17.85;;;;;;;7.70;100.00;98648.91;1680772;85;25388;-61
2023/11/14 07:51:21;;;;;;;35.92;19.17;;;;;;;7.73;100.00;98649.61;1680718;85;27339;-61
2023/11/14 07:53:49;;;;;;;37.55;20.60;;;;;;;7.77;100.00;98655.89;1680652;85;25712;-57
2023/11/14 07:56:16;;;;;;;37.95;19.37;;;;;;;7.83;100.00;98657.27;1680724;85;25812;-61
2023/11/14 07:58:43;;;;;;;33.90;18.00;;;;;;;7.87;100.00;98656.05;1680669;85;25622;-61
2023/11/14 08:01:10;;;;;;;33.25;16.20;;;;;;;7.90;100.00;98660.78;1648608;85;25751;-62
2023/11/14 08:03:37;;;;;;;28.55;16.52;;;;;;;7.93;100.00;98657.41;1680731;85;27341;-61
2023/11/14 08:06:06;;;;;;;28.75;16.37;;;;;;;7.96;100.00;98656.75;1680671;85;25658;-59
2023/11/14 08:08:33;;;;;;;32.87;16.03;;;;;;;8.01;100.00;98657.11;1680987;85;25590;-58
2023/11/14 08:11:02;;;;;;;36.98;16.37;;;;;;;8.07;100.00;98660.37;1680681;85;25672;-59
2023/11/14 08:13:31;;;;;;;31.68;14.83;;;;;;;8.13;100.00;98665.79;1680861;85;25417;-59
2023/11/14 08:15:58;;;;;;;27.80;14.38;;;;;;;8.18;100.00;98651.55;1680739;85;27399;-60
2023/11/14 08:18:24;;;;;;;33.25;14.65;;;;;;;8.20;100.00;98668.16;1673117;85;25634;-59
2023/11/14 08:20:54;;;;;;;33.83;15.23;;;;;;;8.25;100.00;98661.00;1671160;85;25574;-59
2023/11/14 08:23:20;;;;;;;30.97;14.47;;;;;;;8.27;100.00;98668.18;1671289;85;26744;-59
2023/11/14 08:25:47;;;;;;;24.35;13.38;;;;;;;8.30;100.00;98675.60;1671231;85;25546;-60
2023/11/14 08:28:14;;;;;;;30.92;14.33;;;;;;;8.30;100.00;98666.95;1671184;85;27396;-60
2023/11/14 08:30:41;;;;;;;28.50;13.03;;;;;;;8.32;100.00;98671.44;1671172;85;25462;-60
2023/11/14 08:33:09;;;;;;;36.73;14.03;;;;;;;8.35;100.00;98670.00;1671181;85;25453;-59
2023/11/14 08:35:37;;;;;;;35.10;12.98;;;;;;;8.38;100.00;98672.03;1671114;85;25674;-58
2023/11/14 08:38:03;;;;;;;30.72;13.83;;;;;;;8.41;100.00;98680.77;1671194;85;25650;-58
2023/11/14 08:40:30;;;;;;;25.97;12.33;;;;;;;8.43;100.00;98686.67;1671272;85;27317;-58
2023/11/14 08:42:57;;;;;;;24.87;11.18;;;;;;;8.46;100.00;98687.33;1671100;85;25425;-59
2023/11/14 08:45:24;;;;;;;31.73;11.97;;;;;;;8.52;100.00;98688.70;1646727;85;25586;-59
2023/11/14 08:47:51;;;;;;;33.75;12.45;;;;;;;8.59;100.00;98678.72;1671140;85;25695;-59
2023/11/14 08:50:19;;;;;;;30.57;13.03;;;;;;;8.66;100.00;98688.38;1671191;85;25630;-59
2023/11/14 08:52:46;;;;;;;23.57;10.30;;;;;;;8.71;100.00;98685.47;1671137;85;27382;-59
2023/11/14 08:55:13;;;;;;;32.38;10.63;;;;;;;8.82;100.00;98685.83;1671028;85;25741;-60
2023/11/14 08:57:41;;;;;;;25.92;11.83;;;;;;;8.96;100.00;98689.55;1671184;85;25476;-60
2023/11/14 09:00:12;;;;;;;26.07;9.65;;;;;;;9.02;100.00;98684.70;1646406;85;25584;-59
2023/11/14 09:02:38;;;;;;;27.22;10.63;;;;;;;9.05;100.00;98690.20;1671100;85;25484;-60
2023/11/14 09:05:11;;;;;;;22.32;10.30;;;;;;;9.08;100.00;98694.16;1671241;85;27383;-61
2023/11/14 09:07:36;;;;;;;21.55;10.80;;;;;;;9.10;100.00;98691.90;1670153;85;25976;-59
2023/11/14 09:10:08;;;;;;;23.55;9.30;;;;;;;9.10;100.00;98699.42;1671116;85;25574;-59
2023/11/14 09:12:37;;;;;;;21.85;8.45;;;;;;;9.08;100.00;98692.23;1669966;85;25877;-60
2023/11/14 09:15:08;;;;;;;24.12;8.73;;;;;;;9.05;100.00;98700.99;1670840;85;25745;-59
2023/11/14 09:17:37;;;;;;;21.42;7.62;;;;;;;9.05;100.00;98698.30;1671565;85;27524;-60
2023/11/14 09:20:08;;;;;;;17.60;8.08;;;;;;;9.08;100.00;98698.20;1673721;85;25484;-60
2023/11/14 09:22:35;;;;;;;43.80;19.87;;;;;;;9.10;100.00;98690.55;1673618;85;25675;-59
2023/11/14 09:25:03;;;;;;;29.48;15.60;;;;;;;9.12;100.00;98691.77;1673785;85;25752;-59
2023/11/14 09:27:30;;;;;;;30.70;12.43;;;;;;;9.20;100.00;98696.06;1658406;85;25677;-60
2023/11/14 09:29:57;;;;;;;30.55;12.23;;;;;;;9.27;100.00;98688.95;1673820;85;27346;-62
2023/11/14 09:32:24;;;;;;;35.92;19.07;;;;;;;9.33;100.00;98693.01;1673624;85;25664;-59
2023/11/14 09:34:53;;;;;;;19.00;8.20;;;;;;;9.38;100.00;98684.45;1673645;85;25662;-56
2023/11/14 09:37:19;;;;;;;23.75;7.28;;;;;;;9.46;100.00;98688.93;1673747;85;25677;-55
2023/11/14 09:39:46;;;;;;;19.60;6.70;;;;;;;9.53;100.00;98682.39;1673592;85;25465;-57
2023/11/14 09:42:15;;;;;;;20.32;6.40;;;;;;;9.61;100.00;98683.39;1648698;85;27115;-55
2023/11/14 09:44:45;;;;;;;16.65;6.53;;;;;;;9.67;100.00;98676.07;1673563;85;25807;-57
2023/11/14 09:47:14;;;;;;;17.93;6.80;;;;;;;9.72;100.00;98677.72;1673825;84;25581;-59
2023/11/14 09:49:43;;;;;;;17.48;5.87;;;;;;;9.74;100.00;98686.29;1673540;85;26552;-58
2023/11/14 09:52:15;;;;;;;14.85;5.22;;;;;;;9.76;100.00;98671.88;1673730;85;25626;-59
2023/11/14 09:54:45;;;;;;;16.00;5.00;;;;;;;9.76;100.00;98678.62;1673555;85;27399;-58
2023/11/14 09:57:15;;;;;;;21.35;5.20;;;;;;;9.76;100.00;98681.33;1657990;85;25512;-59
2023/11/14 09:59:43;;;;;;;;;;;;;;;9.78;100.00;98689.09;1676175;85;25609;-58
2023/11/14 10:02:12;;;;;;;15.98;4.67;;;;;;;9.79;100.00;98684.70;1673571;85;25641;-59
2023/11/14 10:04:42;;;;;;;13.28;4.15;;;;;;;9.80;100.00;98690.30;1673885;85;25644;-60
2023/11/14 10:07:21;;;;;;;16.73;4.45;;;;;;;9.85;100.00;98693.33;1673645;85;27909;-59
2023/11/14 10:09:50;;;;;;;19.35;4.33;;;;;;;9.86;100.00;98677.36;1673723;85;25599;-57
2023/11/14 10:12:36;;;;;;;;;;;;;;;9.87;100.00;98678.34;1676145;85;25475;-60
2023/11/14 10:15:07;;;;;;;17.75;5.03;;;;;;;9.92;100.00;98690.83;1673605;84;25657;-60
2023/11/14 10:17:45;;;;;;;18.10;4.50;;;;;;;9.91;100.00;98676.55;1674494;85;25584;-61
2023/11/14 10:20:17;;;;;;;;;;;;;;;9.95;100.00;98684.75;1682948;84;27711;-58
2023/11/14 10:22:53;;;;;;;13.20;4.05;;;;;;;10.00;100.00;98678.32;1680460;84;25755;-60
2023/11/14 10:25:32;;;;;;;15.05;3.60;;;;;;;10.04;100.00;98682.67;1680407;85;25551;-60
2023/11/14 10:28:04;;;;;;;14.83;4.37;;;;;;;10.10;100.00;98681.30;1680370;85;26372;-61
2023/11/14 10:30:49;;;;;;;18.40;4.08;;;;;;;10.16;100.00;98675.08;1680476;85;25651;-60
2023/11/14 10:33:17;;;;;;;13.45;3.95;;;;;;;10.18;100.00;98666.63;1680487;85;27350;-57
2023/11/14 10:35:45;;;;;;;14.75;3.62;;;;;;;10.14;99.57;98684.09;1680334;85;25487;-58
2023/11/14 10:38:21;;;;;;;15.05;4.78;;;;;;;10.10;100.00;98684.00;1680363;85;25601;-60
2023/11/14 10:40:52;;;;;;;15.45;3.92;;;;;;;10.08;100.00;98686.27;1680499;84;25682;-61
2023/11/14 10:43:38;;;;;;;26.25;14.98;;;;;;;10.14;100.00;98680.62;1680524;85;25565;-60
2023/11/14 10:46:09;;;;;;;15.38;3.92;;;;;;;10.18;100.00;98677.44;1678970;85;27328;-60
2023/11/14 10:48:38;;;;;;;14.68;4.08;;;;;;;10.32;100.00;98679.75;1680683;85;25682;-62
2023/11/14 10:51:08;;;;;;;18.80;6.50;;;;;;;10.38;100.00;98687.84;1680608;85;32636;-60
2023/11/14 10:53:36;;;;;;;17.40;5.42;;;;;;;10.67;100.00;98671.00;1680445;85;25605;-61
2023/11/14 10:56:07;;;;;;;11.43;3.15;;;;;;;10.80;100.00;98678.67;1680437;85;25624;-62
2023/11/14 10:58:38;;;;;;;14.38;4.28;;;;;;;10.82;100.00;98683.73;1680490;85;27359;-59
2023/11/14 11:01:06;;;;;;;14.15;3.47;;;;;;;10.83;100.00;98676.63;1680377;85;25389;-58
2023/11/14 11:03:36;;;;;;;11.65;3.05;;;;;;;10.83;99.53;98679.33;1680534;85;25482;-60
2023/11/14 11:06:07;;;;;;;18.73;4.35;;;;;;;10.78;99.37;98685.00;1680504;85;32473;-58
2023/11/14 11:08:34;;;;;;;14.75;3.75;;;;;;;10.78;98.93;98680.94;1648619;85;25453;-56
2023/11/14 11:11:03;;;;;;;16.87;3.33;;;;;;;10.73;98.59;98682.56;1680627;85;27174;-61
2023/11/14 11:13:31;;;;;;;;;;;;;;;10.70;98.67;98682.47;1657921;85;25715;-57
2023/11/14 11:16:00;;;;;;;11.28;3.70;;;;;;;10.64;98.54;98676.52;1680565;85;25265;-57
2023/11/14 11:18:37;;;;;;;12.93;3.45;;;;;;;10.61;98.17;98684.00;1677811;85;25976;-58
2023/11/14 11:21:12;;;;;;;15.65;3.98;;;;;;;10.59;98.65;98672.72;1673793;85;25397;-57
2023/11/14 11:24:09;;;;;;;17.17;3.50;;;;;;;10.61;98.30;98679.37;1673727;85;27399;-59
2023/11/14 11:27:20;;;;;;;12.88;3.52;;;;;;;10.63;98.41;98673.61;1669424;85;25595;-57